Time;durP1;ratioP1;P1;durP2;ratioP2;P2;SDS_P1;SDS_P2;PMS_P1;PMS_P2;Temp;Humidity;BMP_temperature;BMP_pressure;BME280_temperature;BME280_humidity;BME280_pressure;Samples;Min_cycle;Max_cycle;Signal;HPM_P1;HPM_P2
2021/08/02 00:00:25;;;;;;;9.75;4.65;;;;;;;19.10;82.90;95072.80;1862962;77;21017;-59
2021/08/02 00:03:14;;;;;;;9.88;4.25;;;;;;;19.08;82.98;95068.01;1862836;77;21002;-59
2021/08/02 00:05:45;;;;;;;6.53;4.03;;;;;;;19.04;83.03;95073.14;1862389;77;21491;-59
2021/08/02 00:08:22;;;;;;;7.40;4.28;;;;;;;18.96;82.45;95064.25;1857294;77;21014;-59
2021/08/02 00:10:50;;;;;;;8.88;3.92;;;;;;;18.88;83.00;95061.66;1856608;77;20979;-59
2021/08/02 00:13:30;;;;;;;5.60;3.75;;;;;;;18.90;82.71;95047.70;1856192;77;21073;-59
2021/08/02 00:16:01;;;;;;;10.95;4.08;;;;;;;18.83;83.11;95043.70;1856502;77;21053;-59
2021/08/02 00:18:30;;;;;;;9.13;3.10;;;;;;;18.76;82.66;95043.20;1856776;77;20978;-59
2021/08/02 00:21:00;;;;;;;12.85;4.40;;;;;;;18.74;83.59;95027.69;1856616;77;21469;-59
2021/08/02 00:23:28;;;;;;;8.08;3.60;;;;;;;18.75;83.46;95022.75;1856756;77;21480;-59
2021/08/02 00:26:02;;;;;;;13.83;4.30;;;;;;;18.74;83.03;95034.38;1856812;77;21007;-59
2021/08/02 00:28:30;;;;;;;10.25;4.22;;;;;;;18.75;82.73;95030.77;1830498;77;20994;-59
2021/08/02 00:30:57;;;;;;;10.18;4.28;;;;;;;18.68;83.06;95022.73;1856597;77;20971;-59
2021/08/02 00:33:24;;;;;;;9.20;3.80;;;;;;;18.74;83.35;95025.02;1856581;77;20990;-59
2021/08/02 00:36:14;;;;;;;10.10;3.87;;;;;;;18.68;82.61;95015.56;1856202;77;21073;-59
2021/08/02 00:39:05;;;;;;;9.18;3.72;;;;;;;18.65;83.74;95001.05;1856130;77;21089;-59
2021/08/02 00:42:18;;;;;;;6.83;3.12;;;;;;;18.63;83.65;95007.45;1856852;77;20986;-59
2021/08/02 00:45:05;;;;;;;9.35;3.87;;;;;;;18.61;84.30;95015.54;1856841;77;20998;-59
2021/08/02 00:47:49;;;;;;;6.15;3.72;;;;;;;18.62;84.06;95030.61;1857019;77;20994;-59
2021/08/02 00:50:23;;;;;;;8.38;3.70;;;;;;;18.65;83.99;95057.17;1856705;77;21021;-59
2021/08/02 00:53:08;;;;;;;11.88;4.17;;;;;;;18.60;83.74;95071.28;1856900;77;20974;-59
2021/08/02 00:55:39;;;;;;;11.33;4.15;;;;;;;18.72;84.20;95079.03;1856803;77;21033;-59
2021/08/02 00:58:11;;;;;;;13.45;4.05;;;;;;;18.80;83.66;95062.13;1830443;77;20935;-59
2021/08/02 01:00:41;;;;;;;14.85;4.37;;;;;;;18.84;83.29;95059.63;1857005;77;20990;-59
2021/08/02 01:03:10;;;;;;;9.65;4.37;;;;;;;18.88;83.23;95047.81;1856627;77;20974;-59
2021/08/02 01:05:40;;;;;;;9.08;4.05;;;;;;;18.91;83.03;95039.61;1856745;77;21487;-59
2021/08/02 01:08:12;;;;;;;5.87;3.80;;;;;;;18.90;82.71;95031.66;1856445;77;21459;-59
2021/08/02 01:10:50;;;;;;;8.18;3.90;;;;;;;18.88;82.93;95025.58;1856390;77;21033;-59
2021/08/02 01:13:22;;;;;;;9.35;4.20;;;;;;;18.92;82.62;95023.08;1828628;77;21499;-59
2021/08/02 01:15:52;;;;;;;13.38;4.15;;;;;;;18.97;82.99;95020.50;1856349;77;21569;-59
2021/08/02 01:18:23;;;;;;;8.35;3.72;;;;;;;19.01;82.85;95011.36;1856262;77;20994;-59
2021/08/02 01:20:57;;;;;;;9.73;4.10;;;;;;;19.03;82.93;95014.80;1856531;77;21064;-59
2021/08/02 01:35:01;;;;;;;9.95;3.92;;;;;;;19.87;79.12;95015.36;1860293;77;22919;-59
2021/08/02 01:37:28;;;;;;;9.08;4.28;;;;;;;19.57;79.68;95016.81;1800251;78;21091;-59
2021/08/02 01:56:31;;;;;;;11.10;4.22;;;;;;;20.25;78.28;95046.83;1866192;77;23160;-60
2021/08/02 01:59:14;;;;;;;9.98;4.62;;;;;;;19.95;78.98;95038.11;1865298;77;21006;-59
2021/08/02 02:02:00;;;;;;;14.07;4.50;;;;;;;19.73;79.32;95042.18;1862991;77;21014;-59
2021/08/02 02:04:32;;;;;;;9.83;4.30;;;;;;;19.55;79.90;95053.50;1862282;77;21018;-59
2021/08/02 02:07:02;;;;;;;8.40;4.75;;;;;;;19.43;80.26;95073.02;1863249;77;20986;-59
2021/08/02 02:09:36;;;;;;;;;;;;;;;19.34;80.21;95079.78;1865518;77;21014;-59
2021/08/02 02:12:05;;;;;;;12.13;5.12;;;;;;;19.19;81.61;95072.70;1863109;77;20396;-59
2021/08/02 02:14:38;;;;;;;9.35;5.00;;;;;;;19.09;81.79;95080.89;1863125;77;20990;-59
2021/08/02 02:17:09;;;;;;;11.03;4.45;;;;;;;19.07;82.15;95072.09;1863039;77;20967;-60
2021/08/02 02:19:39;;;;;;;10.25;3.95;;;;;;;19.01;81.45;95071.52;1863230;77;21018;-60
2021/08/02 02:22:10;;;;;;;7.42;3.80;;;;;;;18.95;81.66;95070.56;1862466;77;20994;-60
2021/08/02 02:24:39;;;;;;;8.58;3.72;;;;;;;18.91;82.48;95069.02;1863027;77;20990;-59
2021/08/02 02:27:09;;;;;;;10.95;3.67;;;;;;;18.88;82.60;95071.02;1863276;77;21005;-60
2021/08/02 02:29:38;;;;;;;10.25;3.70;;;;;;;18.87;83.07;95083.98;1863039;77;21446;-60
2021/08/02 02:32:06;;;;;;;7.22;3.90;;;;;;;18.90;83.18;95086.47;1863102;77;21002;-59
2021/08/02 02:34:37;;;;;;;8.98;3.70;;;;;;;18.84;83.42;95084.17;1863095;77;20986;-59
2021/08/02 02:37:05;;;;;;;5.05;4.35;;;;;;;18.81;83.93;95087.88;1862939;77;21046;-59
2021/08/02 02:39:35;;;;;;;12.37;3.47;;;;;;;18.85;84.00;95090.77;1863088;77;20966;-59
2021/08/02 02:42:03;;;;;;;5.03;3.40;;;;;;;18.88;83.27;95091.92;1862926;77;21037;-60
2021/08/02 02:44:31;;;;;;;12.45;3.52;;;;;;;18.94;83.30;95092.03;1863141;77;21002;-59
2021/08/02 02:47:01;;;;;;;7.20;3.12;;;;;;;18.94;82.67;95099.56;1862996;77;21001;-59
2021/08/02 02:49:29;;;;;;;10.03;3.62;;;;;;;18.92;83.00;95100.13;1862932;77;21005;-59
2021/08/02 02:51:57;;;;;;;5.92;3.90;;;;;;;18.89;83.44;95102.13;1863170;77;21483;-59
2021/08/02 02:54:27;;;;;;;6.35;3.87;;;;;;;18.92;83.67;95112.64;1862624;77;21002;-59
2021/08/02 02:56:56;;;;;;;11.08;3.70;;;;;;;18.97;83.65;95122.58;1856501;77;21007;-59
2021/08/02 02:59:25;;;;;;;4.87;3.27;;;;;;;18.95;83.14;95132.05;1856794;77;20966;-59
2021/08/02 03:01:54;;;;;;;14.95;3.40;;;;;;;19.00;83.25;95146.01;1856649;77;20967;-61
2021/08/02 03:04:27;;;;;;;11.65;3.92;;;;;;;19.03;83.17;95135.61;1856688;77;21447;-59
2021/08/02 03:06:56;;;;;;;9.25;3.67;;;;;;;19.09;83.38;95137.05;1831113;77;20983;-59
2021/08/02 03:09:26;;;;;;;11.85;3.55;;;;;;;19.11;82.98;95111.94;1856681;77;21041;-59
2021/08/02 03:11:53;;;;;;;11.10;3.70;;;;;;;19.14;82.87;95099.71;1856757;77;20986;-59
2021/08/02 03:14:20;;;;;;;8.43;3.40;;;;;;;19.14;82.77;95116.24;1856719;77;21006;-59
2021/08/02 03:16:47;;;;;;;11.22;3.33;;;;;;;19.12;82.57;95118.14;1856838;77;21006;-59
2021/08/02 03:19:13;;;;;;;8.58;3.90;;;;;;;18.97;82.99;95112.74;1831054;77;21034;-59
2021/08/02 03:21:40;;;;;;;14.40;4.55;;;;;;;18.89;83.75;95106.14;1856419;77;20967;-60
2021/08/02 03:24:27;;;;;;;12.93;3.92;;;;;;;18.94;83.79;95097.38;1856618;77;21010;-60
2021/08/02 03:27:08;;;;;;;9.55;3.80;;;;;;;19.03;83.98;95087.48;1856444;77;20991;-59
2021/08/02 03:29:40;;;;;;;9.50;3.15;;;;;;;19.07;83.60;95088.14;1856765;77;21033;-59
2021/08/02 03:32:14;;;;;;;12.15;3.95;;;;;;;19.06;83.16;95080.60;1856594;77;21014;-61
2021/08/02 03:34:42;;;;;;;8.45;3.30;;;;;;;19.06;82.81;95066.38;1856859;77;21029;-59
2021/08/02 03:37:12;;;;;;;9.48;3.22;;;;;;;19.06;82.65;95071.73;1856616;77;21052;-60
2021/08/02 03:39:40;;;;;;;9.93;3.42;;;;;;;18.98;82.53;95067.70;1856647;77;20982;-59
2021/08/02 03:42:07;;;;;;;8.10;3.35;;;;;;;19.02;83.31;95073.26;1856692;77;21534;-59
2021/08/02 03:44:35;;;;;;;18.15;4.35;;;;;;;18.98;83.43;95078.88;1856622;77;20963;-59
2021/08/02 03:47:03;;;;;;;8.25;3.77;;;;;;;19.01;83.54;95081.36;1856322;77;20994;-59
2021/08/02 03:49:30;;;;;;;11.53;3.87;;;;;;;19.00;83.54;95094.36;1856703;77;21054;-60
2021/08/02 03:51:59;;;;;;;5.40;3.40;;;;;;;18.99;83.35;95096.14;1856643;77;21041;-60
2021/08/02 03:54:28;;;;;;;6.50;3.60;;;;;;;18.92;84.08;95103.28;1856585;77;21002;-59
2021/08/02 03:56:57;;;;;;;10.00;4.15;;;;;;;18.98;83.99;95102.94;1856396;77;21034;-59
2021/08/02 03:59:25;;;;;;;7.62;3.58;;;;;;;19.03;83.79;95103.52;1856321;77;21050;-59
2021/08/02 04:01:52;;;;;;;10.80;3.08;;;;;;;19.07;83.76;95121.56;1856150;77;20998;-59
2021/08/02 04:04:18;;;;;;;12.45;3.50;;;;;;;19.03;83.28;95123.58;1856200;77;21480;-59
2021/08/02 04:06:46;;;;;;;9.40;3.17;;;;;;;18.98;83.07;95133.68;1856359;77;20998;-60
2021/08/02 04:09:13;;;;;;;10.95;3.95;;;;;;;18.97;83.38;95131.45;1856330;77;21491;-59
2021/08/02 04:11:42;;;;;;;10.30;3.50;;;;;;;19.00;83.75;95127.77;1856250;77;20997;-59
2021/08/02 04:14:09;;;;;;;8.18;3.08;;;;;;;18.98;83.48;95122.98;1856395;77;20994;-59
2021/08/02 04:16:37;;;;;;;10.25;3.60;;;;;;;19.04;83.59;95115.92;1856460;77;21049;-59
2021/08/02 04:19:05;;;;;;;7.90;3.42;;;;;;;19.10;83.62;95108.89;1856154;77;21023;-59
2021/08/02 04:21:33;;;;;;;6.62;3.25;;;;;;;19.18;83.49;95100.41;1856176;77;21048;-59
2021/08/02 04:24:01;;;;;;;9.05;3.50;;;;;;;19.22;82.99;95101.92;1856233;77;21017;-60
2021/08/02 04:26:27;;;;;;;6.72;3.30;;;;;;;19.10;82.78;95104.00;1856119;77;21013;-59
2021/08/02 04:28:57;;;;;;;11.63;3.12;;;;;;;19.01;83.38;95108.09;1856142;77;20998;-59
2021/08/02 04:31:30;;;;;;;13.53;3.65;;;;;;;19.04;83.21;95113.25;1856551;77;21006;-59
2021/08/02 04:33:57;;;;;;;8.25;3.35;;;;;;;18.90;83.25;95119.88;1856439;77;21065;-59
2021/08/02 04:36:25;;;;;;;5.85;3.05;;;;;;;18.94;83.34;95130.31;1856363;77;21002;-59
2021/08/02 04:38:52;;;;;;;7.62;3.22;;;;;;;18.98;83.11;95137.20;1856251;77;20998;-59
2021/08/02 04:41:19;;;;;;;9.03;3.67;;;;;;;18.96;83.10;95151.62;1856573;77;20994;-60
2021/08/02 04:43:45;;;;;;;10.23;4.05;;;;;;;18.89;83.65;95153.78;1856090;77;20966;-59
2021/08/02 04:46:12;;;;;;;8.83;4.23;;;;;;;18.95;84.05;95147.20;1856486;77;21003;-59
2021/08/02 04:48:39;;;;;;;12.43;3.95;;;;;;;19.03;84.15;95141.81;1856024;77;20994;-59
2021/08/02 04:51:05;;;;;;;9.95;4.00;;;;;;;19.11;83.78;95147.19;1856403;77;20998;-59
2021/08/02 04:53:32;;;;;;;8.10;3.62;;;;;;;19.16;83.63;95148.63;1856095;77;21523;-59
2021/08/02 04:55:59;;;;;;;11.28;3.52;;;;;;;19.24;83.48;95148.16;1855183;77;21047;-59
2021/08/02 04:58:25;;;;;;;7.95;3.40;;;;;;;19.29;83.32;95148.75;1854034;77;21456;-59
2021/08/02 05:00:52;;;;;;;8.60;3.17;;;;;;;19.39;83.20;95145.91;1853937;77;20966;-59
2021/08/02 05:03:18;;;;;;;6.17;2.35;;;;;;;19.41;82.63;95144.48;1853514;77;21075;-59
2021/08/02 05:05:45;;;;;;;9.83;3.17;;;;;;;19.35;82.16;95139.48;1853659;77;21037;-59
2021/08/02 05:08:11;;;;;;;14.58;3.60;;;;;;;19.24;83.04;95147.69;1853685;77;21050;-59
2021/08/02 05:10:38;;;;;;;6.08;3.30;;;;;;;19.29;83.44;95146.56;1853569;77;21007;-59
2021/08/02 05:13:05;;;;;;;9.98;3.22;;;;;;;19.40;83.61;95151.66;1853646;77;21515;-59
2021/08/02 05:15:34;;;;;;;6.37;3.17;;;;;;;19.43;83.41;95150.61;1853754;77;21041;-59
2021/08/02 05:18:00;;;;;;;8.50;3.12;;;;;;;19.51;83.88;95149.66;1853722;77;20967;-59
2021/08/02 05:20:27;;;;;;;7.80;3.60;;;;;;;19.60;83.45;95154.91;1853777;77;21023;-60
2021/08/02 05:22:53;;;;;;;6.75;3.20;;;;;;;19.57;83.25;95152.44;1854059;77;20958;-59
2021/08/02 05:25:20;;;;;;;7.45;3.45;;;;;;;19.61;83.68;95158.00;1853558;77;21488;-59
2021/08/02 05:27:52;;;;;;;6.62;3.55;;;;;;;19.76;84.05;95154.89;1853834;77;21011;-60
2021/08/02 05:30:20;;;;;;;10.67;3.87;;;;;;;19.86;83.55;95155.55;1854444;77;20990;-60
2021/08/02 05:32:47;;;;;;;16.00;8.70;;;;;;;19.89;82.82;95161.20;1853892;77;21006;-59
2021/08/02 05:35:14;;;;;;;9.55;4.08;;;;;;;20.01;82.91;95171.63;1853902;77;21030;-60
2021/08/02 05:37:41;;;;;;;9.60;3.83;;;;;;;20.13;82.38;95171.32;1854009;77;21006;-59
2021/08/02 05:40:10;;;;;;;8.35;3.40;;;;;;;20.34;83.12;95174.48;1854008;77;20959;-60
2021/08/02 05:42:37;;;;;;;5.87;3.22;;;;;;;20.56;82.34;95169.47;1853981;77;21037;-59
2021/08/02 05:45:09;;;;;;;10.23;3.87;;;;;;;20.68;80.75;95175.38;1854021;77;21010;-59
2021/08/02 05:47:36;;;;;;;8.37;3.97;;;;;;;20.66;80.10;95175.98;1854255;77;21487;-59
2021/08/02 05:50:04;;;;;;;11.85;5.28;;;;;;;20.63;79.95;95177.49;1853953;77;21042;-59
2021/08/02 05:52:31;;;;;;;10.53;5.33;;;;;;;20.59;79.29;95177.33;1854087;77;21002;-59
2021/08/02 05:54:59;;;;;;;10.30;5.62;;;;;;;20.56;79.58;95174.83;1854059;77;20959;-59
2021/08/02 05:57:26;;;;;;;8.13;5.47;;;;;;;20.53;80.03;95169.64;1855955;77;21290;-59
2021/08/02 05:59:53;;;;;;;12.60;6.40;;;;;;;20.50;80.70;95174.72;1856046;77;21002;-59
2021/08/02 06:02:20;;;;;;;15.72;6.15;;;;;;;20.47;81.18;95178.94;1856030;77;21003;-59
2021/08/02 06:04:47;;;;;;;11.25;6.15;;;;;;;20.39;81.45;95173.70;1856624;77;21018;-59
2021/08/02 06:07:14;;;;;;;11.45;5.80;;;;;;;20.33;81.29;95177.61;1855931;77;21070;-60
2021/08/02 06:09:40;;;;;;;11.20;3.00;;;;;;;20.37;81.61;95178.30;1856205;77;21448;-59
2021/08/02 06:12:09;;;;;;;10.55;4.42;;;;;;;20.40;80.75;95184.79;1856084;77;21065;-59
2021/08/02 06:14:35;;;;;;;8.53;3.20;;;;;;;20.44;81.17;95199.24;1856324;77;21500;-59
2021/08/02 06:17:02;;;;;;;6.83;3.10;;;;;;;20.58;80.41;95216.28;1856441;77;20987;-59
2021/08/02 06:19:29;;;;;;;9.10;3.13;;;;;;;20.62;79.29;95210.63;1856036;77;21010;-60
2021/08/02 06:21:56;;;;;;;6.28;3.10;;;;;;;20.56;78.58;95219.53;1856187;77;20978;-59
2021/08/02 06:24:22;;;;;;;4.65;2.87;;;;;;;20.63;78.80;95217.70;1856616;77;20972;-59
2021/08/02 06:26:49;;;;;;;9.23;3.25;;;;;;;20.74;78.39;95204.97;1855914;77;21165;-59
2021/08/02 06:29:15;;;;;;;11.43;3.55;;;;;;;20.86;78.72;95207.31;1856432;77;20962;-59
2021/08/02 06:31:42;;;;;;;12.28;3.67;;;;;;;21.10;79.05;95207.53;1856285;77;20994;-59
2021/08/02 06:34:09;;;;;;;6.10;3.92;;;;;;;21.15;78.35;95210.28;1856321;77;21005;-59
2021/08/02 06:36:36;;;;;;;7.58;3.42;;;;;;;21.25;78.70;95214.56;1828549;77;20983;-59
2021/08/02 06:39:02;;;;;;;8.15;3.05;;;;;;;21.30;78.13;95222.31;1856423;77;20999;-59
2021/08/02 06:41:29;;;;;;;7.92;3.72;;;;;;;21.35;77.92;95222.37;1856061;77;21041;-59
2021/08/02 06:43:56;;;;;;;6.58;3.22;;;;;;;21.45;77.79;95233.39;1856310;77;21026;-59
2021/08/02 06:46:23;;;;;;;8.65;3.50;;;;;;;21.51;77.52;95230.77;1856340;77;20990;-59
2021/08/02 06:48:49;;;;;;;6.75;3.37;;;;;;;21.57;77.49;95232.56;1856464;77;20990;-59
2021/08/02 06:51:18;;;;;;;8.50;3.60;;;;;;;21.59;77.17;95235.13;1856224;77;20975;-59
2021/08/02 06:53:44;;;;;;;9.75;3.17;;;;;;;21.55;76.61;95253.28;1856365;77;21026;-59
2021/08/02 06:56:10;;;;;;;9.93;3.65;;;;;;;21.61;76.18;95250.16;1856138;77;21567;-59
2021/08/02 06:58:37;;;;;;;8.50;3.95;;;;;;;21.58;76.53;95249.03;1856476;77;20998;-59
2021/08/02 07:01:03;;;;;;;9.95;4.45;;;;;;;21.67;76.59;95257.42;1856301;77;20970;-59
2021/08/02 07:03:30;;;;;;;6.08;3.50;;;;;;;21.78;76.90;95256.23;1855920;77;21493;-60
2021/08/02 07:05:56;;;;;;;9.10;3.70;;;;;;;21.88;76.93;95242.55;1856408;77;21049;-60
2021/08/02 07:08:23;;;;;;;7.62;4.12;;;;;;;21.91;76.53;95246.36;1856419;77;21030;-60
2021/08/02 07:10:50;;;;;;;11.60;4.25;;;;;;;21.87;76.57;95246.17;1856047;77;21519;-60
2021/08/02 07:13:16;;;;;;;14.73;5.05;;;;;;;21.89;76.57;95235.34;1828306;77;20994;-59
2021/08/02 07:15:43;;;;;;;9.18;4.92;;;;;;;21.95;76.27;95236.28;1856423;77;20963;-59
2021/08/02 07:18:10;;;;;;;16.50;5.28;;;;;;;22.08;76.10;95243.00;1856212;77;21006;-60
2021/08/02 07:20:37;;;;;;;10.45;5.20;;;;;;;22.25;75.16;95240.00;1856211;77;21040;-60
2021/08/02 07:23:04;;;;;;;11.38;5.42;;;;;;;22.38;74.44;95231.47;1856061;77;21041;-60
2021/08/02 07:25:30;;;;;;;7.80;4.80;;;;;;;22.52;73.90;95233.16;1856146;77;21018;-60
2021/08/02 07:27:57;;;;;;;11.88;5.03;;;;;;;22.66;73.11;95240.25;1856195;77;21073;-59
2021/08/02 07:30:25;;;;;;;6.70;4.53;;;;;;;22.84;72.92;95236.22;1856052;77;20991;-59
2021/08/02 07:32:51;;;;;;;7.03;4.78;;;;;;;22.96;72.10;95236.31;1856134;77;20998;-59
2021/08/02 07:35:18;;;;;;;4.67;4.10;;;;;;;23.09;72.06;95239.34;1856180;77;21448;-59
2021/08/02 07:37:44;;;;;;;7.92;4.83;;;;;;;23.25;70.72;95243.59;1856336;77;21097;-59
2021/08/02 07:40:12;;;;;;;9.28;4.78;;;;;;;23.35;70.54;95250.50;1856270;77;21476;-60
2021/08/02 07:42:39;;;;;;;9.83;4.65;;;;;;;23.44;70.57;95247.98;1856306;77;21054;-59
2021/08/02 07:45:08;;;;;;;7.75;5.10;;;;;;;23.51;68.89;95242.97;1856501;77;21025;-60
2021/08/02 07:47:34;;;;;;;8.13;5.80;;;;;;;23.59;69.16;95235.20;1856689;77;21488;-60
2021/08/02 07:50:01;;;;;;;9.48;5.40;;;;;;;23.74;68.61;95243.48;1856455;77;21009;-59
2021/08/02 07:52:27;;;;;;;12.85;5.28;;;;;;;23.87;66.31;95234.47;1856018;77;21062;-59
2021/08/02 07:54:54;;;;;;;14.25;5.75;;;;;;;24.06;67.83;95241.97;1856123;77;21536;-60
2021/08/02 07:57:20;;;;;;;8.15;5.28;;;;;;;24.24;66.39;95241.02;1856229;77;20975;-59
2021/08/02 07:59:47;;;;;;;9.18;3.75;;;;;;;24.36;65.42;95237.36;1856380;77;20955;-59
2021/08/02 08:02:13;;;;;;;10.38;4.37;;;;;;;24.52;65.32;95247.36;1856300;77;21507;-60
2021/08/02 08:04:40;;;;;;;6.53;3.95;;;;;;;24.59;63.62;95245.89;1856428;77;21046;-60
2021/08/02 08:07:06;;;;;;;9.00;3.37;;;;;;;24.71;64.01;95248.08;1856274;77;21127;-60
2021/08/02 08:09:34;;;;;;;8.68;3.67;;;;;;;24.86;61.84;95251.88;1856121;77;21007;-60
2021/08/02 08:12:01;;;;;;;8.40;3.45;;;;;;;24.99;59.34;95249.90;1827931;77;21002;-60
2021/08/02 08:14:27;;;;;;;8.85;3.27;;;;;;;25.11;58.85;95253.45;1856104;77;21569;-60
2021/08/02 08:16:54;;;;;;;7.58;2.67;;;;;;;25.15;59.65;95262.99;1856358;77;21002;-60
2021/08/02 08:19:20;;;;;;;5.05;2.90;;;;;;;24.99;55.65;95262.89;1856478;77;20998;-60
2021/08/02 08:21:47;;;;;;;4.58;2.75;;;;;;;25.09;58.86;95267.55;1856578;77;21009;-60
2021/08/02 08:24:13;;;;;;;4.67;2.70;;;;;;;25.21;57.60;95276.89;1856281;77;21034;-60
2021/08/02 08:26:40;;;;;;;6.15;2.60;;;;;;;25.46;56.78;95277.08;1856348;77;20943;-60
2021/08/02 08:29:07;;;;;;;4.90;2.50;;;;;;;25.61;58.13;95284.91;1856491;77;21067;-59
2021/08/02 08:31:34;;;;;;;5.30;2.30;;;;;;;25.44;56.53;95286.30;1856423;77;21034;-60
2021/08/02 08:34:01;;;;;;;2.92;2.08;;;;;;;25.14;55.45;95288.29;1856021;77;21058;-62
2021/08/02 08:36:27;;;;;;;7.25;2.60;;;;;;;24.92;56.28;95287.34;1856004;77;20978;-60
2021/08/02 08:38:54;;;;;;;4.37;2.50;;;;;;;24.66;56.26;95283.16;1856138;77;21487;-60
2021/08/02 08:41:21;;;;;;;7.78;2.92;;;;;;;24.49;56.24;95289.88;1856243;77;21010;-60
2021/08/02 08:43:54;;;;;;;3.30;2.47;;;;;;;24.26;56.56;95283.55;1856235;77;21006;-60
2021/08/02 08:46:23;;;;;;;6.53;2.42;;;;;;;24.17;57.92;95290.53;1856094;77;20959;-60
2021/08/02 08:48:51;;;;;;;7.33;2.75;;;;;;;24.17;55.54;95286.48;1856328;77;21002;-60
2021/08/02 08:51:19;;;;;;;5.47;2.75;;;;;;;24.46;57.80;95284.23;1856256;77;21068;-60
2021/08/02 08:53:46;;;;;;;5.95;3.30;;;;;;;24.67;57.88;95283.05;1856354;77;20958;-60
2021/08/02 08:56:18;;;;;;;10.58;5.20;;;;;;;24.74;57.33;95286.95;1856283;77;21484;-60
2021/08/02 08:58:45;;;;;;;9.78;5.45;;;;;;;24.77;58.94;95285.84;1856667;77;20998;-60
2021/08/02 09:01:12;;;;;;;9.50;5.87;;;;;;;24.75;61.87;95287.83;1856241;77;21864;-60
2021/08/02 09:03:53;;;;;;;8.45;5.90;;;;;;;24.73;61.89;95289.78;1856387;77;21010;-60
2021/08/02 09:06:20;;;;;;;9.40;6.53;;;;;;;24.68;61.83;95299.59;1856739;77;21460;-60
2021/08/02 09:08:47;;;;;;;9.98;6.12;;;;;;;24.58;62.10;95310.73;1856730;77;21041;-60
2021/08/02 09:11:20;;;;;;;9.28;6.83;;;;;;;24.50;62.29;95317.23;1856791;77;20967;-59
2021/08/02 09:13:48;;;;;;;10.72;5.95;;;;;;;24.32;62.43;95308.21;1856889;77;21534;-59
2021/08/02 09:16:25;;;;;;;11.65;6.95;;;;;;;24.18;63.71;95318.70;1856723;77;21013;-60
2021/08/02 09:19:12;;;;;;;10.75;6.42;;;;;;;24.15;63.71;95320.30;1856367;77;20994;-60
2021/08/02 09:21:53;;;;;;;12.25;6.22;;;;;;;24.22;64.14;95315.76;1856602;77;21030;-60
2021/08/02 09:24:31;;;;;;;18.57;5.90;;;;;;;24.48;63.64;95319.19;1856819;77;21491;-60
2021/08/02 09:26:57;;;;;;;8.68;5.58;;;;;;;24.77;61.17;95317.75;1856118;77;21518;-60
2021/08/02 09:29:31;;;;;;;10.48;5.30;;;;;;;24.99;61.52;95311.48;1856382;77;21074;-60
2021/08/02 09:32:00;;;;;;;9.48;5.42;;;;;;;25.21;60.57;95314.70;1856305;77;21022;-60
2021/08/02 09:34:27;;;;;;;10.85;5.28;;;;;;;25.46;59.01;95311.34;1856597;77;20967;-60
2021/08/02 09:36:57;;;;;;;9.38;4.75;;;;;;;25.76;58.69;95313.85;1856549;77;21525;-59
2021/08/02 09:39:31;;;;;;;8.00;4.17;;;;;;;26.06;60.25;95322.62;1856484;77;21503;-59
2021/08/02 09:42:12;;;;;;;9.08;4.30;;;;;;;26.39;54.65;95316.67;1856804;77;20939;-60
2021/08/02 09:44:36;;;;;;;7.50;4.30;;;;;;;26.54;53.59;95318.94;1855683;77;20971;-60
2021/08/02 09:47:08;;;;;;;9.33;4.12;;;;;;;26.57;54.36;95323.73;1856834;77;20938;-60
2021/08/02 09:49:47;;;;;;;6.35;3.08;;;;;;;26.62;53.58;95322.33;1830705;77;20977;-62
2021/08/02 09:52:15;;;;;;;7.20;3.05;;;;;;;26.60;52.32;95330.22;1856767;77;21440;-60
2021/08/02 09:54:42;;;;;;;9.05;3.27;;;;;;;26.57;51.06;95325.94;1856968;77;21006;-60
2021/08/02 09:57:08;;;;;;;4.78;3.05;;;;;;;26.62;52.29;95327.75;1856015;77;21063;-60
2021/08/02 09:59:43;;;;;;;6.35;3.12;;;;;;;26.81;52.36;95331.05;1856043;77;20979;-60
2021/08/02 10:02:11;;;;;;;4.95;3.37;;;;;;;26.91;50.97;95339.22;1856198;77;21037;-60
2021/08/02 10:04:38;;;;;;;5.12;3.12;;;;;;;27.22;51.82;95337.92;1856263;77;21551;-60
2021/08/02 10:07:10;;;;;;;4.00;3.10;;;;;;;27.31;49.79;95341.15;1856418;77;20990;-60
2021/08/02 10:09:40;;;;;;;5.30;2.83;;;;;;;27.33;49.79;95339.16;1856776;77;21504;-60
2021/08/02 10:12:07;;;;;;;4.67;2.77;;;;;;;27.23;49.66;95340.48;1856442;77;21341;-60
2021/08/02 10:14:34;;;;;;;4.25;2.62;;;;;;;27.16;50.28;95345.54;1856244;77;21468;-60
2021/08/02 10:17:09;;;;;;;4.55;2.77;;;;;;;27.04;49.96;95347.12;1856234;77;21464;-60
2021/08/02 10:19:39;;;;;;;4.55;2.85;;;;;;;27.13;48.11;95346.32;1828488;77;21033;-60
2021/08/02 10:22:08;;;;;;;4.17;2.92;;;;;;;27.14;50.10;95350.26;1856265;77;21085;-60
2021/08/02 10:24:47;;;;;;;4.30;2.75;;;;;;;27.16;50.07;95344.19;1856587;77;21053;-60
2021/08/02 10:27:29;;;;;;;6.25;2.50;;;;;;;27.16;49.16;95337.41;1856510;77;21540;-60
2021/08/02 10:29:55;;;;;;;2.98;2.27;;;;;;;27.06;48.17;95347.34;1856762;77;21424;-60
2021/08/02 10:32:26;;;;;;;4.25;2.37;;;;;;;26.97;45.31;95350.38;1856088;77;21074;-60
2021/08/02 10:34:57;;;;;;;4.42;2.30;;;;;;;27.15;46.60;95343.84;1856798;77;21042;-62
2021/08/02 10:37:35;;;;;;;2.95;2.47;;;;;;;27.13;46.34;95347.67;1856892;77;20994;-60
2021/08/02 10:40:07;;;;;;;4.83;2.40;;;;;;;27.03;43.62;95352.19;1856323;77;21029;-60
2021/08/02 10:42:48;;;;;;;4.00;2.40;;;;;;;27.23;45.28;95345.05;1856541;77;21092;-60
2021/08/02 10:45:15;;;;;;;3.15;2.35;;;;;;;27.54;45.91;95352.63;1856471;77;21018;-60
2021/08/02 10:47:43;;;;;;;4.83;2.42;;;;;;;27.66;44.17;95344.75;1856366;77;21038;-60
2021/08/02 10:50:11;;;;;;;5.83;1.95;;;;;;;27.81;45.19;95339.31;1856049;77;20986;-60
2021/08/02 10:52:38;;;;;;;4.45;1.92;;;;;;;27.93;41.76;95345.48;1856179;77;20994;-60
2021/08/02 10:55:16;;;;;;;3.67;2.50;;;;;;;27.91;42.22;95335.27;1856322;77;21488;-60
2021/08/02 10:57:45;;;;;;;3.42;2.37;;;;;;;28.02;45.01;95339.69;1856545;77;21006;-60
2021/08/02 11:00:22;;;;;;;2.47;2.27;;;;;;;28.22;44.89;95330.59;1854788;77;20994;-60
2021/08/02 11:02:54;;;;;;;2.87;2.27;;;;;;;28.36;45.22;95331.15;1856793;77;21479;-60
2021/08/02 11:05:23;;;;;;;2.95;2.20;;;;;;;28.41;44.72;95333.78;1856920;77;20990;-60
2021/08/02 11:07:50;;;;;;;2.70;2.22;;;;;;;28.16;41.39;95332.50;1855073;77;21015;-60
2021/08/02 11:10:17;;;;;;;4.92;2.75;;;;;;;28.29;42.63;95324.58;1856721;77;20991;-60
2021/08/02 11:12:47;;;;;;;5.03;2.30;;;;;;;28.45;45.36;95327.58;1856962;77;20939;-61
2021/08/02 11:15:15;;;;;;;6.17;2.27;;;;;;;28.53;43.07;95322.31;1856496;77;21023;-60
2021/08/02 11:17:54;;;;;;;2.98;2.37;;;;;;;28.47;41.29;95325.59;1856673;77;20998;-61
2021/08/02 11:20:21;;;;;;;3.35;2.05;;;;;;;28.35;41.52;95328.94;1856602;77;21010;-60
2021/08/02 11:22:55;;;;;;;5.50;2.70;;;;;;;28.40;41.40;95330.72;1856678;77;21519;-60
2021/08/02 11:25:28;;;;;;;2.55;2.17;;;;;;;28.38;44.71;95323.22;1855857;77;21066;-60
2021/08/02 11:27:59;;;;;;;2.95;2.15;;;;;;;28.53;41.20;95321.46;1856926;77;20954;-60
2021/08/02 11:30:28;;;;;;;4.62;2.47;;;;;;;28.44;39.97;95320.42;1856378;77;21010;-60
2021/08/02 11:32:56;;;;;;;4.78;2.40;;;;;;;28.37;42.78;95325.56;1856773;77;20977;-60
2021/08/02 11:35:37;;;;;;;2.90;2.22;;;;;;;28.60;45.48;95321.20;1856511;77;20998;-61
2021/08/02 11:38:05;;;;;;;2.77;2.37;;;;;;;28.69;40.91;95321.70;1856653;77;21049;-60
2021/08/02 11:40:37;;;;;;;3.40;2.55;;;;;;;28.74;41.03;95323.48;1856808;77;21029;-60
2021/08/02 11:43:08;;;;;;;3.22;2.60;;;;;;;28.66;42.93;95322.85;1856727;77;21495;-60
2021/08/02 11:45:35;;;;;;;5.25;2.80;;;;;;;28.91;42.09;95328.66;1856757;77;20950;-60
2021/08/02 11:48:08;;;;;;;3.37;2.20;;;;;;;29.03;43.80;95330.20;1856595;77;20986;-60
2021/08/02 11:50:35;;;;;;;3.70;2.50;;;;;;;28.97;39.13;95331.28;1856724;77;20998;-60
2021/08/02 11:53:04;;;;;;;3.17;2.47;;;;;;;28.97;43.70;95332.12;1856418;77;20994;-60
2021/08/02 11:55:32;;;;;;;3.83;2.25;;;;;;;29.19;43.68;95324.16;1856853;77;20931;-60
2021/08/02 11:58:01;;;;;;;4.53;2.47;;;;;;;29.56;38.72;95326.00;1855320;77;20970;-61
2021/08/02 12:00:28;;;;;;;4.37;2.10;;;;;;;29.90;39.65;95326.23;1853766;77;21131;-60
2021/08/02 12:03:08;;;;;;;3.27;2.20;;;;;;;30.15;36.58;95321.89;1853983;77;20994;-60
2021/08/02 12:05:37;;;;;;;3.45;2.70;;;;;;;30.61;38.22;95322.66;1853102;77;21018;-60
2021/08/02 12:08:18;;;;;;;2.58;2.00;;;;;;;30.85;36.41;95327.14;1854055;77;21499;-61
2021/08/02 12:10:59;;;;;;;2.83;2.40;;;;;;;30.96;35.51;95319.54;1853987;77;20999;-60